Time;durP1;ratioP1;P1;durP2;ratioP2;P2;SDS_P1;SDS_P2;PMS_P1;PMS_P2;Temp;Humidity;BMP_temperature;BMP_pressure;BME280_temperature;BME280_humidity;BME280_pressure;Samples;Min_cycle;Max_cycle;Signal;HPM_P1;HPM_P2
2022/08/06 00:00:48;;;;;;;4.82;1.40;;;;;;;10.65;100.00;155201.91;4917933;29;20039;-79
2022/08/06 00:03:14;;;;;;;4.30;1.17;;;;;;;10.60;100.00;155187.78;4900509;29;20135;-80
2022/08/06 00:05:39;;;;;;;3.30;1.10;;;;;;;10.62;100.00;155192.91;4929490;29;20426;-78
2022/08/06 00:08:05;;;;;;;3.28;1.60;;;;;;;10.57;100.00;155180.06;4898227;29;20651;-79
2022/08/06 00:10:30;;;;;;;3.15;1.10;;;;;;;10.59;100.00;155186.53;4899115;29;20070;-77
2022/08/06 00:12:58;;;;;;;7.20;1.45;;;;;;;10.71;100.00;155217.28;4901213;29;20035;-78
2022/08/06 00:15:24;;;;;;;1.95;1.00;;;;;;;10.68;100.00;155208.31;4916937;29;20039;-80
2022/08/06 00:17:49;;;;;;;2.67;1.02;;;;;;;10.59;100.00;155186.53;4916141;29;20561;-79
2022/08/06 00:20:15;;;;;;;7.20;1.23;;;;;;;10.59;100.00;155185.25;4916748;29;20031;-79
2022/08/06 00:22:41;;;;;;;4.15;1.10;;;;;;;10.53;100.00;155171.13;4916912;29;20032;-78
2022/08/06 00:25:10;;;;;;;6.93;1.42;;;;;;;10.58;100.00;155182.66;4901964;29;20385;-79
2022/08/06 00:27:37;;;;;;;6.25;1.42;;;;;;;10.54;100.00;155172.41;4886570;29;20090;-79
2022/08/06 00:30:04;;;;;;;4.13;1.30;;;;;;;10.46;100.00;155153.16;4898253;29;20130;-78
2022/08/06 00:32:33;;;;;;;4.65;1.20;;;;;;;10.49;100.00;155162.16;4917170;29;20076;-78
2022/08/06 00:34:58;;;;;;;7.40;1.48;;;;;;;10.47;100.00;155157.03;4914502;29;20629;-78
2022/08/06 00:37:24;;;;;;;3.60;1.20;;;;;;;10.44;100.00;155149.31;4929383;29;20032;-81
2022/08/06 00:39:50;;;;;;;6.72;1.30;;;;;;;10.45;100.00;155150.59;4901999;29;20056;-79
2022/08/06 00:42:16;;;;;;;4.25;1.40;;;;;;;10.42;100.00;155144.19;4901972;29;20094;-76
2022/08/06 00:44:41;;;;;;;5.38;1.35;;;;;;;10.53;100.00;155171.13;4930784;29;20123;-78
2022/08/06 00:47:07;;;;;;;9.40;1.40;;;;;;;10.45;100.00;155150.59;4894117;29;20122;-76
2022/08/06 00:49:33;;;;;;;5.75;1.48;;;;;;;10.41;100.00;155141.59;4900775;29;20130;-79
2022/08/06 00:51:58;;;;;;;4.80;1.10;;;;;;;10.32;100.00;155118.50;4895431;29;20036;-79
2022/08/06 00:54:24;;;;;;;4.00;1.10;;;;;;;10.39;100.00;155135.19;4887446;29;20058;-79
2022/08/06 00:56:49;;;;;;;5.07;1.38;;;;;;;10.37;100.00;155131.34;4886150;29;20044;-80
2022/08/06 00:59:15;;;;;;;6.85;1.42;;;;;;;10.40;100.00;155137.78;4899473;29;20506;-79
2022/08/06 01:01:40;;;;;;;4.40;1.40;;;;;;;10.38;100.00;155133.94;4931489;29;20044;-79
2022/08/06 01:04:06;;;;;;;6.68;1.30;;;;;;;10.33;100.00;155122.38;4901013;29;20034;-78
2022/08/06 01:06:32;;;;;;;4.32;1.20;;;;;;;10.50;100.00;155164.69;4904314;29;20039;-79
2022/08/06 01:08:57;;;;;;;5.68;1.10;;;;;;;10.42;100.00;155142.91;4917886;29;20393;-79
2022/08/06 01:11:23;;;;;;;2.85;1.20;;;;;;;10.38;100.00;155133.94;4907441;29;20027;-78
2022/08/06 01:13:49;;;;;;;5.82;1.30;;;;;;;10.46;100.00;155154.44;4921277;29;20094;-78
2022/08/06 01:16:23;;;;;;;4.20;1.50;;;;;;;10.44;100.00;155148.03;4925342;29;20489;-79
2022/08/06 01:19:01;;;;;;;9.05;1.40;;;;;;;10.36;100.00;155127.50;4920233;29;20083;-79
2022/08/06 01:21:42;;;;;;;5.15;1.35;;;;;;;10.27;100.00;155106.94;4916040;29;20039;-79
2022/08/06 01:24:33;;;;;;;5.97;1.40;;;;;;;10.26;100.00;155104.34;4931227;29;20068;-78
2022/08/06 01:27:41;;;;;;;6.90;1.40;;;;;;;10.26;100.00;155104.34;4916065;29;20039;-78
2022/08/06 01:30:11;;;;;;;6.95;1.30;;;;;;;10.23;100.00;155095.41;4900103;29;20130;-78
2022/08/06 01:32:46;;;;;;;5.13;1.40;;;;;;;10.17;100.00;155081.31;4905173;29;20099;-77
2022/08/06 01:35:21;;;;;;;6.85;1.30;;;;;;;10.15;100.00;155076.13;4899252;29;20051;-78
2022/08/06 01:38:11;;;;;;;6.75;1.33;;;;;;;10.13;100.00;155071.00;4934167;29;20046;-78
2022/08/06 01:40:40;;;;;;;4.95;1.45;;;;;;;10.16;100.00;155078.72;4909504;29;20040;-78
2022/08/06 01:43:10;;;;;;;1.95;1.23;;;;;;;10.10;100.00;155063.34;4935887;29;20420;-77
2022/08/06 01:45:38;;;;;;;7.75;1.60;;;;;;;10.16;100.00;155078.72;4898732;29;20039;-79
2022/08/06 01:48:08;;;;;;;5.82;1.50;;;;;;;10.13;100.00;155072.31;4903243;29;20667;-78
2022/08/06 01:50:39;;;;;;;5.22;1.40;;;;;;;10.11;100.00;155065.88;4908167;29;20126;-80
2022/08/06 01:53:08;;;;;;;9.40;1.75;;;;;;;10.06;100.00;155053.09;4889829;29;20895;-79
2022/08/06 01:55:47;;;;;;;6.05;1.45;;;;;;;10.04;100.00;155049.22;4919135;29;20042;-78
2022/08/06 01:58:17;;;;;;;2.85;1.50;;;;;;;10.03;100.00;155045.38;4900935;29;20087;-79
2022/08/06 02:00:45;;;;;;;4.93;1.80;;;;;;;10.10;100.00;155063.34;4887573;29;20067;-78
2022/08/06 02:03:19;;;;;;;6.63;1.77;;;;;;;10.09;100.00;155060.75;4887506;29;20047;-79
2022/08/06 02:05:44;;;;;;;4.32;1.63;;;;;;;10.09;100.00;155060.75;4919686;29;20040;-80
2022/08/06 02:08:14;;;;;;;11.25;1.80;;;;;;;10.16;100.00;155077.44;4918598;29;20031;-78
2022/08/06 02:10:41;;;;;;;11.27;1.73;;;;;;;10.10;100.00;155064.59;4918525;29;20042;-79
2022/08/06 02:13:10;;;;;;;6.53;1.63;;;;;;;10.21;100.00;155090.22;4901521;29;20618;-78
2022/08/06 02:15:37;;;;;;;7.07;1.60;;;;;;;10.12;100.00;155069.72;4917550;29;20413;-78
2022/08/06 02:18:08;;;;;;;6.90;1.58;;;;;;;10.08;100.00;155058.22;4914005;29;20039;-79
2022/08/06 02:20:42;;;;;;;3.88;1.90;;;;;;;10.06;100.00;155053.09;4901275;29;20044;-78
2022/08/06 02:23:11;;;;;;;3.55;1.55;;;;;;;9.99;100.00;155036.38;4905985;29;20066;-80
2022/08/06 02:25:39;;;;;;;4.63;1.70;;;;;;;10.05;100.00;155050.50;4904141;29;20118;-81
2022/08/06 02:28:06;;;;;;;4.50;1.50;;;;;;;9.95;100.00;155026.13;4910549;29;20050;-81
2022/08/06 02:30:38;;;;;;;4.20;1.35;;;;;;;10.01;100.00;155041.50;4920118;29;20046;-81
2022/08/06 02:33:06;;;;;;;5.47;1.60;;;;;;;9.97;100.00;155031.25;4903783;29;20832;-79
2022/08/06 02:35:47;;;;;;;3.15;1.42;;;;;;;9.91;100.00;155015.88;4902389;29;20036;-78
2022/08/06 02:38:36;;;;;;;2.90;1.42;;;;;;;9.84;100.00;154997.94;4896843;29;20034;-78
2022/08/06 02:41:20;;;;;;;6.32;1.95;;;;;;;9.74;100.00;154973.56;4915532;29;20028;-79
2022/08/06 02:44:10;;;;;;;6.10;1.30;;;;;;;9.71;100.00;154967.13;4919541;29;20027;-79
2022/08/06 02:47:17;;;;;;;8.25;1.65;;;;;;;9.70;100.00;154964.59;4878701;29;20482;-78
2022/08/06 02:49:45;;;;;;;3.65;1.40;;;;;;;9.72;100.00;154968.44;4914634;29;20044;-79
2022/08/06 02:52:19;;;;;;;4.30;1.35;;;;;;;9.75;100.00;154976.09;4905625;29;20024;-79
2022/08/06 02:55:02;;;;;;;4.03;1.42;;;;;;;9.63;100.00;154946.63;4904574;29;20032;-78
2022/08/06 02:57:31;;;;;;;8.80;1.50;;;;;;;9.65;100.00;154950.47;4907358;29;20067;-79
2022/08/06 03:00:03;;;;;;;6.43;1.50;;;;;;;9.59;100.00;154935.06;4923655;29;20035;-80
2022/08/06 03:02:31;;;;;;;2.88;1.42;;;;;;;9.60;100.00;154938.91;4899508;29;20092;-79
2022/08/06 03:04:59;;;;;;;7.78;1.80;;;;;;;9.61;100.00;154940.25;4874210;29;20040;-79
2022/08/06 03:07:28;;;;;;;6.25;1.40;;;;;;;9.59;100.00;154935.06;4933858;29;20042;-78
2022/08/06 03:09:56;;;;;;;3.33;1.60;;;;;;;9.59;100.00;154936.38;4915147;29;20398;-78
2022/08/06 03:12:22;;;;;;;6.57;1.45;;;;;;;9.63;100.00;154945.38;4915464;29;20035;-78
2022/08/06 03:14:49;;;;;;;2.22;1.45;;;;;;;9.64;100.00;154949.16;4902959;29;20171;-78
2022/08/06 03:17:17;;;;;;;4.18;1.70;;;;;;;9.58;100.00;154933.78;4897655;29;20039;-79
2022/08/06 03:19:44;;;;;;;5.65;1.73;;;;;;;9.55;100.00;154927.41;4914654;29;20048;-79
2022/08/06 03:22:12;;;;;;;6.32;2.15;;;;;;;9.52;100.00;154919.69;4905057;29;20418;-80
2022/08/06 03:24:39;;;;;;;2.85;1.50;;;;;;;9.58;100.00;154933.78;4883671;29;20103;-77
2022/08/06 03:27:06;;;;;;;4.78;1.80;;;;;;;9.63;100.00;154945.38;4911682;29;20677;-78
2022/08/06 03:29:34;;;;;;;3.50;1.85;;;;;;;9.61;100.00;154940.25;4885817;29;20051;-78
2022/08/06 03:32:00;;;;;;;5.88;1.70;;;;;;;9.57;100.00;154931.25;4894793;29;20067;-79
2022/08/06 03:34:29;;;;;;;4.38;1.80;;;;;;;9.63;100.00;154946.63;4913795;29;20040;-78
2022/08/06 03:36:56;;;;;;;3.50;2.00;;;;;;;9.64;100.00;154947.91;4916468;29;20035;-77
2022/08/06 03:39:24;;;;;;;4.65;2.13;;;;;;;9.62;100.00;154942.78;4920063;29;20167;-78
2022/08/06 03:41:51;;;;;;;6.70;2.25;;;;;;;9.60;100.00;154938.91;4901339;29;20164;-78
2022/08/06 03:44:16;;;;;;;3.40;2.28;;;;;;;9.58;100.00;154933.78;4903987;29;20041;-78
2022/08/06 03:46:55;;;;;;;5.63;2.20;;;;;;;9.48;100.00;154908.19;4916413;29;20035;-78
2022/08/06 03:49:40;;;;;;;6.35;2.00;;;;;;;9.47;100.00;154905.59;4910831;29;20035;-78
2022/08/06 03:52:06;;;;;;;5.45;1.80;;;;;;;9.41;100.00;154891.50;4924797;29;20505;-79
2022/08/06 03:54:36;;;;;;;3.63;2.30;;;;;;;9.43;100.00;154895.34;4918942;29;20146;-78
2022/08/06 03:57:08;;;;;;;4.20;2.30;;;;;;;9.40;100.00;154887.63;4899439;29;20035;-79
2022/08/06 03:59:37;;;;;;;5.65;2.38;;;;;;;9.40;100.00;154888.94;4904918;29;20039;-80
2022/08/06 04:02:05;;;;;;;4.65;2.08;;;;;;;9.42;100.00;154894.06;4898368;29;20035;-78
2022/08/06 04:04:33;;;;;;;4.25;2.50;;;;;;;9.40;100.00;154887.63;4898811;29;20056;-79
2022/08/06 04:07:00;;;;;;;4.30;2.20;;;;;;;9.44;100.00;154897.94;4896696;29;20179;-79
2022/08/06 04:09:27;;;;;;;8.15;2.42;;;;;;;9.40;100.00;154888.94;4886817;29;20619;-79
2022/08/06 04:11:54;;;;;;;5.32;2.45;;;;;;;9.41;100.00;154891.50;4908193;29;20039;-78
2022/08/06 04:14:20;;;;;;;6.07;2.35;;;;;;;9.51;100.00;154915.84;4919787;29;20031;-79
2022/08/06 04:16:48;;;;;;;2.95;2.38;;;;;;;9.55;100.00;154927.41;4887472;29;20035;-80
2022/08/06 04:19:18;;;;;;;3.60;2.03;;;;;;;9.54;100.00;154923.56;4917388;29;20063;-79
2022/08/06 04:21:45;;;;;;;6.57;2.40;;;;;;;9.65;100.00;154951.75;4917199;29;20032;-79
2022/08/06 04:24:12;;;;;;;8.00;2.40;;;;;;;9.63;100.00;154945.38;4935393;29;20600;-79
2022/08/06 04:26:39;;;;;;;3.97;2.40;;;;;;;9.64;100.00;154947.91;4909793;29;20528;-78
2022/08/06 04:29:08;;;;;;;6.50;2.72;;;;;;;9.73;100.00;154972.25;4890031;29;20038;-79
2022/08/06 04:31:36;;;;;;;7.57;2.28;;;;;;;9.79;100.00;154985.09;4934368;29;20031;-77
2022/08/06 04:34:03;;;;;;;5.72;2.00;;;;;;;9.82;100.00;154994.06;4896585;29;20485;-77
2022/08/06 04:36:29;;;;;;;3.80;2.30;;;;;;;9.88;100.00;155009.44;4905750;29;20043;-78
2022/08/06 04:38:55;;;;;;;4.90;2.40;;;;;;;9.95;100.00;155026.13;4896563;29;20047;-79
2022/08/06 04:41:21;;;;;;;8.18;2.63;;;;;;;9.94;100.00;155024.88;4901870;29;20040;-79
2022/08/06 04:43:48;;;;;;;3.78;2.55;;;;;;;9.99;100.00;155035.13;4902071;29;20062;-78
2022/08/06 04:46:14;;;;;;;5.18;2.58;;;;;;;10.07;100.00;155055.63;4883888;29;20036;-78
2022/08/06 04:48:39;;;;;;;5.70;2.33;;;;;;;10.15;100.00;155076.13;4915934;29;20050;-76
2022/08/06 04:51:05;;;;;;;3.53;2.40;;;;;;;10.21;100.00;155090.22;4915893;29;20032;-77
2022/08/06 04:53:39;;;;;;;4.53;2.33;;;;;;;10.26;100.00;155103.06;4901027;29;20103;-77
2022/08/06 04:56:06;;;;;;;8.60;2.40;;;;;;;10.27;100.00;155105.66;4915792;29;20046;-78
2022/08/06 04:58:33;;;;;;;7.57;2.47;;;;;;;10.24;100.00;155097.94;4898490;29;20031;-79
2022/08/06 05:00:59;;;;;;;5.80;2.25;;;;;;;10.30;100.00;155114.69;4895292;29;20028;-78
2022/08/06 05:03:24;;;;;;;5.72;2.70;;;;;;;10.32;100.00;155119.81;4890811;29;20035;-78
2022/08/06 05:06:02;;;;;;;4.72;2.25;;;;;;;10.38;100.00;155133.94;4919016;29;20043;-79
2022/08/06 05:08:30;;;;;;;8.98;2.65;;;;;;;10.45;100.00;155151.91;4913875;29;20072;-79
2022/08/06 05:11:04;;;;;;;5.80;2.00;;;;;;;10.54;100.00;155173.69;4919847;29;20064;-78
2022/08/06 05:13:35;;;;;;;7.57;2.20;;;;;;;10.68;100.00;155209.63;4879854;29;20043;-77
2022/08/06 05:16:05;;;;;;;8.88;2.47;;;;;;;10.79;100.00;155236.53;4902383;29;20047;-77
2022/08/06 05:18:36;;;;;;;5.47;2.17;;;;;;;10.85;100.00;155251.97;4898107;29;20154;-77
2022/08/06 05:21:03;;;;;;;3.28;1.88;;;;;;;11.00;100.00;155287.88;4882214;29;20647;-78
2022/08/06 05:23:43;;;;;;;5.45;2.00;;;;;;;11.09;100.00;155312.28;4894532;29;20043;-79
2022/08/06 05:26:09;;;;;;;6.88;2.33;;;;;;;11.22;100.00;155343.06;4893703;29;20036;-78
2022/08/06 05:28:39;;;;;;;2.75;1.58;;;;;;;11.29;100.00;155362.31;4912824;29;20818;-78
2022/08/06 05:31:04;;;;;;;4.90;1.70;;;;;;;11.47;100.00;155405.94;4894199;29;20043;-77
2022/08/06 05:33:37;;;;;;;2.95;1.50;;;;;;;11.54;100.00;155422.66;4900783;29;20027;-79
2022/08/06 05:36:04;;;;;;;3.88;1.92;;;;;;;11.69;100.00;155461.16;4893804;29;20032;-79
2022/08/06 05:38:33;;;;;;;4.20;1.50;;;;;;;11.86;100.00;155503.53;4876245;29;20063;-78
2022/08/06 05:40:58;;;;;;;2.78;1.40;;;;;;;11.88;100.00;155509.97;4883617;29;20036;-78
2022/08/06 05:43:25;;;;;;;3.08;1.75;;;;;;;11.90;100.00;155512.56;4888901;29;20401;-77
2022/08/06 05:45:56;;;;;;;7.95;1.70;;;;;;;11.95;100.00;155526.69;4915766;29;20054;-77
2022/08/06 05:48:22;;;;;;;4.30;1.80;;;;;;;12.06;100.00;155553.66;4895752;29;20038;-78
2022/08/06 05:50:54;;;;;;;5.55;1.70;;;;;;;12.17;100.00;155581.91;4916389;29;20035;-78
2022/08/06 05:53:33;;;;;;;4.15;1.40;;;;;;;12.34;100.00;155624.31;4896994;29;20438;-78
2022/08/06 05:56:07;;;;;;;6.32;1.45;;;;;;;12.56;100.00;155679.50;4915815;29;20032;-77
2022/08/06 05:58:45;;;;;;;2.33;1.00;;;;;;;12.70;100.00;155714.22;4898252;29;20054;-80
2022/08/06 06:01:13;;;;;;;3.95;1.00;;;;;;;12.83;100.00;155746.34;4914305;29;20504;-78
2022/08/06 06:03:41;;;;;;;2.28;0.88;;;;;;;12.89;100.00;155760.47;4891522;29;20028;-78
2022/08/06 06:06:08;;;;;;;3.42;1.00;;;;;;;12.93;100.00;155770.75;4895683;29;20131;-78
2022/08/06 06:08:36;;;;;;;6.35;1.20;;;;;;;12.99;100.00;155786.16;4907587;29;20071;-77
2022/08/06 06:11:03;;;;;;;4.25;0.90;;;;;;;13.04;100.00;155800.28;4888925;29;20035;-78
2022/08/06 06:13:29;;;;;;;3.63;1.00;;;;;;;13.08;100.00;155808.00;4900336;29;20035;-78
2022/08/06 06:16:26;;;;;;;4.20;1.00;;;;;;;13.13;100.00;155822.16;4932235;29;20059;-78
2022/08/06 06:19:18;;;;;;;5.05;0.90;;;;;;;13.26;100.00;155854.28;4896490;29;20445;-78
2022/08/06 06:21:49;;;;;;;2.95;0.80;;;;;;;13.44;100.00;155900.56;4895311;29;20051;-78
2022/08/06 06:24:32;;;;;;;1.88;0.70;;;;;;;13.59;100.00;155936.56;4888073;29;20043;-77
2022/08/06 06:27:15;;;;;;;;;;;;;;;13.78;100.00;155985.41;4909644;29;20043;-80
2022/08/06 06:29:59;;;;;;;4.50;0.75;;;;;;;13.99;100.00;156036.81;4895608;29;19915;-78
2022/08/06 06:32:38;;;;;;;2.45;1.00;;;;;;;14.33;100.00;156121.69;4897972;29;20075;-80
2022/08/06 06:35:22;;;;;;;3.33;1.00;;;;;;;14.69;100.00;156211.75;4902869;29;20102;-78
2022/08/06 06:38:00;;;;;;;2.30;0.80;;;;;;;14.98;100.00;156286.38;4919741;29;20148;-79
2022/08/06 06:40:42;;;;;;;2.42;0.90;;;;;;;15.06;100.00;156304.38;4882720;29;20116;-79
2022/08/06 06:43:20;;;;;;;1.75;0.88;;;;;;;15.20;100.00;156340.44;4889649;29;20036;-80
2022/08/06 06:46:20;;;;;;;5.07;0.95;;;;;;;15.15;100.00;156328.81;4920070;29;20038;-78
2022/08/06 06:48:50;;;;;;;2.00;0.80;;;;;;;15.34;100.00;156375.16;4875888;29;20035;-80
2022/08/06 06:51:40;;;;;;;2.38;0.80;;;;;;;15.32;100.00;156370.00;4907678;29;20065;-80
2022/08/06 06:54:10;;;;;;;3.08;0.93;;;;;;;15.44;100.00;156399.59;4899947;29;20032;-79
2022/08/06 06:56:42;;;;;;;3.90;0.80;;;;;;;15.54;100.00;156426.63;4902187;29;20040;-79
2022/08/06 06:59:16;;;;;;;2.53;0.80;;;;;;;15.63;100.00;156448.47;4899906;29;20035;-80
2022/08/06 07:01:44;;;;;;;6.45;0.85;;;;;;;15.71;100.00;156467.81;4915124;29;20490;-79
2022/08/06 07:04:14;;;;;;;5.70;0.63;;;;;;;15.83;100.00;156498.72;4901797;29;20035;-78
2022/08/06 07:06:41;;;;;;;6.40;0.80;;;;;;;15.83;100.00;156498.72;4920886;29;20051;-79
2022/08/06 07:09:09;;;;;;;5.50;0.60;;;;;;;15.85;100.00;156502.59;4895679;29;20071;-79
2022/08/06 07:11:35;;;;;;;2.60;0.52;;;;;;;16.04;100.00;156550.22;4890773;29;20113;-78
2022/08/06 07:14:02;;;;;;;4.68;0.98;;;;;;;16.15;100.00;156579.81;4895444;29;20028;-80
2022/08/06 07:16:31;;;;;;;2.67;0.70;;;;;;;16.37;100.00;156633.91;4901677;29;20028;-78
2022/08/06 07:19:00;;;;;;;5.07;0.80;;;;;;;16.49;99.34;156664.78;4919617;29;20035;-79
2022/08/06 07:21:26;;;;;;;2.95;0.75;;;;;;;16.51;100.00;156669.94;4900239;29;20040;-77
2022/08/06 07:23:52;;;;;;;4.22;0.80;;;;;;;16.64;100.00;156700.84;4931457;29;20043;-78
2022/08/06 07:26:21;;;;;;;3.83;0.63;;;;;;;16.81;100.00;156743.34;4885763;29;20036;-78
2022/08/06 07:28:49;;;;;;;1.67;0.50;;;;;;;16.83;100.00;156749.81;4906411;29;20078;-79
2022/08/06 07:31:15;;;;;;;4.35;0.77;;;;;;;17.09;100.00;156814.25;4906580;29;20067;-79
2022/08/06 07:33:43;;;;;;;1.48;0.75;;;;;;;17.12;96.71;156823.25;4898629;29;20368;-80
2022/08/06 07:36:10;;;;;;;2.53;0.70;;;;;;;17.15;98.53;156828.41;4901420;29;20027;-80
2022/08/06 07:38:41;;;;;;;5.80;0.90;;;;;;;17.21;98.26;156843.84;4902578;29;20039;-80
2022/08/06 07:41:08;;;;;;;4.45;0.82;;;;;;;17.36;97.82;156882.50;4909517;29;20043;-78
2022/08/06 07:43:48;;;;;;;6.07;0.70;;;;;;;17.39;100.00;156890.22;4902890;29;20613;-76
2022/08/06 07:46:18;;;;;;;1.92;0.45;;;;;;;17.41;100.00;156894.09;4932946;29;20031;-78
2022/08/06 07:48:49;;;;;;;2.80;0.55;;;;;;;17.52;92.91;156922.44;4895705;29;20043;-78
2022/08/06 07:51:15;;;;;;;2.72;0.55;;;;;;;17.61;89.25;156945.66;4898276;29;20047;-79
2022/08/06 07:53:42;;;;;;;2.33;0.60;;;;;;;17.98;90.95;157037.16;4915914;29;20043;-77
2022/08/06 07:56:08;;;;;;;3.63;0.50;;;;;;;18.09;96.44;157065.50;4907236;29;20061;-79
2022/08/06 07:58:36;;;;;;;5.40;0.80;;;;;;;17.68;88.31;156963.63;4900614;29;20036;-77
2022/08/06 08:01:02;;;;;;;3.38;0.80;;;;;;;17.43;90.96;156900.53;4912962;29;20032;-77
2022/08/06 08:06:23;;;;;;;3.55;0.57;;;;;;;16.97;94.81;156783.31;4914273;29;20490;-78
2022/08/06 08:08:53;;;;;;;4.93;0.50;;;;;;;16.74;97.22;156727.91;4889513;29;20480;-79
2022/08/06 08:11:20;;;;;;;2.45;0.45;;;;;;;16.91;94.07;156770.47;4897878;29;20090;-79
2022/08/06 08:13:45;;;;;;;2.85;0.50;;;;;;;17.28;92.69;156861.91;4900448;29;20067;-78
2022/08/06 08:16:14;;;;;;;2.03;0.50;;;;;;;17.59;91.44;156940.44;4899811;29;20043;-80
2022/08/06 08:18:40;;;;;;;2.20;0.30;;;;;;;17.70;92.93;156968.78;4941571;23;20051;-78
2022/08/06 08:21:06;;;;;;;0.80;0.30;;;;;;;17.50;87.43;156917.31;4920495;29;20684;-77
2022/08/06 08:23:34;;;;;;;1.73;0.40;;;;;;;17.69;88.86;156964.97;4949299;29;20035;-78
2022/08/06 08:26:01;;;;;;;2.78;0.40;;;;;;;17.79;86.07;156989.44;4936712;29;20107;-78
2022/08/06 08:28:28;;;;;;;1.08;0.30;;;;;;;17.74;83.65;156977.81;4929873;29;20517;-78
2022/08/06 08:30:58;;;;;;;5.55;0.40;;;;;;;18.02;89.58;157047.47;4905163;29;20083;-79
2022/08/06 08:33:24;;;;;;;1.55;0.40;;;;;;;18.13;82.10;157075.81;4900340;29;20028;-78
2022/08/06 08:35:50;;;;;;;5.47;0.43;;;;;;;18.43;84.38;157150.56;4916279;29;20122;-79
2022/08/06 08:38:15;;;;;;;2.80;0.43;;;;;;;18.62;86.21;157198.28;4916685;29;20039;-80
2022/08/06 08:40:42;;;;;;;0.68;0.30;;;;;;;18.71;85.53;157221.47;4907090;29;20098;-81
2022/08/06 08:43:12;;;;;;;3.30;0.68;;;;;;;18.76;81.75;157234.38;4900410;29;20031;-76
2022/08/06 08:45:39;;;;;;;1.42;0.45;;;;;;;18.78;84.39;157239.53;4900522;29;20134;-77
2022/08/06 08:48:06;;;;;;;1.65;0.40;;;;;;;18.67;86.86;157212.44;4915826;29;20036;-77
2022/08/06 08:50:33;;;;;;;2.15;0.60;;;;;;;18.88;86.88;157264.06;4911598;29;20048;-75
2022/08/06 08:53:06;;;;;;;2.30;0.40;;;;;;;19.08;78.33;157313.06;4910907;29;20039;-76
2022/08/06 08:55:31;;;;;;;5.30;0.45;;;;;;;19.22;80.63;157349.19;4893860;29;20048;-75
2022/08/06 08:57:58;;;;;;;0.85;0.30;;;;;;;19.16;77.90;157335.00;4899115;29;20024;-76
2022/08/06 09:00:24;;;;;;;2.53;0.47;;;;;;;19.42;80.70;157400.75;4930785;29;20044;-76
2022/08/06 09:02:51;;;;;;;1.13;0.50;;;;;;;19.44;83.69;157404.63;4931613;29;20509;-77
2022/08/06 09:05:17;;;;;;;3.67;0.55;;;;;;;19.47;74.95;157411.06;4882973;29;20035;-76
2022/08/06 09:07:43;;;;;;;2.13;0.40;;;;;;;19.52;76.00;157425.25;4881715;29;20077;-78
2022/08/06 09:10:10;;;;;;;1.95;0.68;;;;;;;19.54;75.85;157429.13;4915808;29;20028;-75
2022/08/06 09:12:37;;;;;;;2.00;0.43;;;;;;;19.46;75.01;157409.78;4916550;29;20035;-76
2022/08/06 09:15:03;;;;;;;1.30;0.38;;;;;;;19.77;76.94;157488.50;4895580;29;20421;-76
2022/08/06 09:17:29;;;;;;;2.30;0.50;;;;;;;20.16;74.58;157585.28;4912495;29;20047;-79
2022/08/06 09:19:55;;;;;;;4.82;0.60;;;;;;;19.84;74.97;157506.56;4893738;29;20054;-76
2022/08/06 09:22:21;;;;;;;2.25;0.40;;;;;;;19.70;76.19;157470.38;4914836;29;20073;-76
2022/08/06 09:24:46;;;;;;;3.95;0.38;;;;;;;19.84;79.71;157505.28;4895297;29;20046;-77
2022/08/06 09:27:15;;;;;;;1.77;0.40;;;;;;;20.07;71.74;157562.03;4892953;29;20091;-77
2022/08/06 09:29:49;;;;;;;2.95;0.77;;;;;;;20.27;72.62;157613.66;4935998;29;20032;-77
2022/08/06 09:32:35;;;;;;;4.18;0.60;;;;;;;20.25;74.18;157607.19;4905513;29;20044;-77
2022/08/06 09:35:01;;;;;;;4.20;0.45;;;;;;;20.30;74.35;157620.09;4888110;29;20036;-77
2022/08/06 09:37:28;;;;;;;3.78;0.75;;;;;;;20.47;71.60;157663.94;4915900;29;20074;-77
2022/08/06 09:39:54;;;;;;;3.53;0.52;;;;;;;20.33;71.67;157629.13;4895711;29;20043;-77
2022/08/06 09:42:49;;;;;;;2.53;0.40;;;;;;;19.74;71.27;157479.47;4897432;29;20032;-76
2022/08/06 09:45:16;;;;;;;1.95;0.40;;;;;;;20.07;70.77;157562.03;4932383;29;20520;-79
2022/08/06 09:47:43;;;;;;;2.28;0.65;;;;;;;20.45;71.74;157658.78;4913372;29;20039;-76
2022/08/06 09:50:09;;;;;;;5.47;0.50;;;;;;;20.55;66.41;157684.63;4911613;29;20465;-77
2022/08/06 09:52:34;;;;;;;4.35;0.77;;;;;;;20.55;70.21;157684.63;4920352;29;20032;-75
2022/08/06 09:55:00;;;;;;;1.15;0.40;;;;;;;20.31;71.57;157623.97;4894349;29;20055;-75
2022/08/06 09:57:41;;;;;;;3.30;0.57;;;;;;;20.64;79.55;157705.31;4904735;29;20042;-76
2022/08/06 10:00:08;;;;;;;2.13;0.50;;;;;;;20.33;77.82;157627.84;4915469;29;20046;-78
2022/08/06 10:02:34;;;;;;;3.25;0.60;;;;;;;19.92;74.07;157525.91;4923499;29;20073;-77
2022/08/06 10:05:13;;;;;;;6.03;0.63;;;;;;;20.14;73.05;157580.13;4913467;29;20032;-77
2022/08/06 10:07:39;;;;;;;1.38;0.40;;;;;;;20.00;70.61;157546.56;4895184;29;20059;-78
2022/08/06 10:10:06;;;;;;;2.10;0.52;;;;;;;20.17;70.36;157587.81;4898013;29;20056;-77
2022/08/06 10:12:32;;;;;;;3.25;0.57;;;;;;;20.54;70.72;157680.75;4930280;29;20053;-79
2022/08/06 10:14:59;;;;;;;2.30;0.50;;;;;;;20.78;70.56;157742.75;4912182;29;20036;-79
2022/08/06 10:17:25;;;;;;;5.57;0.52;;;;;;;21.04;70.75;157807.28;4897349;29;20114;-77
2022/08/06 10:20:26;;;;;;;2.88;0.60;;;;;;;21.29;65.15;157870.53;4901050;29;20039;-79
2022/08/06 10:22:59;;;;;;;11.50;2.05;;;;;;;21.32;63.16;157878.28;4863182;29;20041;-76
2022/08/06 10:25:29;;;;;;;3.40;0.80;;;;;;;21.31;60.46;157874.41;4913407;29;20047;-76
2022/08/06 10:27:55;;;;;;;5.03;0.55;;;;;;;21.33;63.63;157880.84;4896544;29;20107;-78
2022/08/06 10:30:21;;;;;;;2.97;0.50;;;;;;;21.37;63.16;157889.88;4935088;29;20282;-76
2022/08/06 10:32:50;;;;;;;9.10;1.13;;;;;;;21.62;63.03;157953.19;4918412;29;20046;-76
2022/08/06 10:35:18;;;;;;;4.78;0.70;;;;;;;21.64;59.41;157958.34;4913490;29;20409;-77
2022/08/06 10:37:47;;;;;;;3.85;0.80;;;;;;;21.48;59.01;157918.34;4910340;29;20126;-78
2022/08/06 10:40:15;;;;;;;3.40;0.70;;;;;;;21.66;60.28;157962.22;4902046;29;20091;-75
2022/08/06 10:42:40;;;;;;;2.17;0.50;;;;;;;21.68;58.75;157967.38;4915186;29;20035;-77
2022/08/06 10:45:11;;;;;;;1.55;0.50;;;;;;;21.85;58.10;158010.00;4916196;29;20083;-80
2022/08/06 10:47:38;;;;;;;1.52;0.43;;;;;;;21.96;56.83;158039.75;4904926;29;20054;-78
2022/08/06 10:50:05;;;;;;;5.90;0.73;;;;;;;22.03;52.79;158056.50;4877781;29;20047;-77
2022/08/06 10:52:31;;;;;;;1.95;0.60;;;;;;;22.01;57.14;158051.34;4916421;29;20560;-77
2022/08/06 10:54:59;;;;;;;2.38;0.50;;;;;;;22.21;62.19;158101.72;4899493;29;20035;-77
2022/08/06 10:57:26;;;;;;;4.25;0.63;;;;;;;21.67;66.65;157966.09;4916941;29;20043;-76
2022/08/06 10:59:53;;;;;;;3.55;0.70;;;;;;;20.95;62.08;157784.06;4914342;29;20047;-78
2022/08/06 11:02:18;;;;;;;5.25;0.82;;;;;;;20.92;60.21;157776.28;4933320;29;20401;-77
2022/08/06 11:04:50;;;;;;;4.20;0.90;;;;;;;20.83;61.83;157754.31;4904292;29;20052;-77
2022/08/06 11:07:46;;;;;;;2.67;0.70;;;;;;;20.23;63.89;157603.34;4902186;29;20118;-77
2022/08/06 11:10:15;;;;;;;2.88;1.15;;;;;;;20.26;60.96;157611.06;4894645;29;20040;-75
2022/08/06 11:12:52;;;;;;;4.28;1.17;;;;;;;20.93;62.29;157778.91;4905160;29;20047;-76
2022/08/06 11:15:19;;;;;;;2.15;1.10;;;;;;;21.46;58.36;157911.91;4932349;29;20034;-76
2022/08/06 11:17:51;;;;;;;2.28;0.90;;;;;;;21.84;58.09;158007.44;4931780;29;20118;-75
2022/08/06 11:20:31;;;;;;;3.60;1.20;;;;;;;22.21;60.76;158100.41;4899743;29;20032;-79
2022/08/06 11:23:01;;;;;;;5.53;1.30;;;;;;;22.40;51.69;158148.28;4903859;29;20069;-77
2022/08/06 11:25:44;;;;;;;2.75;1.23;;;;;;;22.39;53.38;158146.97;4892190;29;20126;-77
2022/08/06 11:28:14;;;;;;;2.78;1.40;;;;;;;21.96;54.01;158038.41;4931815;29;20410;-78
2022/08/06 11:30:46;;;;;;;3.70;1.58;;;;;;;21.81;52.24;157999.69;4902073;29;20031;-77
2022/08/06 11:33:31;;;;;;;3.33;1.65;;;;;;;22.03;55.03;158055.22;4917236;29;20509;-77
2022/08/06 11:35:57;;;;;;;3.42;1.70;;;;;;;22.53;56.34;158183.16;4902951;29;20119;-79
2022/08/06 11:38:46;;;;;;;5.20;1.75;;;;;;;22.80;54.54;158249.03;4898989;29;20035;-76